Time;durP1;ratioP1;P1;durP2;ratioP2;P2;SDS_P1;SDS_P2;PMS_P1;PMS_P2;Temp;Humidity;BMP_temperature;BMP_pressure;BME280_temperature;BME280_humidity;BME280_pressure;Samples;Min_cycle;Max_cycle;Signal;HPM_P1;HPM_P2
2023/09/30 00:02:15;;;;;;;6.60;2.05;;;;;;;11.74;100.00;102100.53;4867428;29;20023;-77
2023/09/30 00:04:40;;;;;;;10.93;2.42;;;;;;;11.71;100.00;102108.22;4881501;29;20116;-78
2023/09/30 00:07:06;;;;;;;;;;;;;;;11.69;100.00;102108.47;4864381;29;20566;-78
2023/09/30 00:09:31;;;;;;;7.57;2.42;;;;;;;11.64;100.00;102116.44;4881433;29;19920;-78
2023/09/30 00:11:57;;;;;;;;;;;;;;;11.63;100.00;102125.56;4854003;29;20037;-79
2023/09/30 00:14:23;;;;;;;6.70;2.15;;;;;;;11.61;100.00;102127.69;4865873;29;19926;-79
2023/09/30 00:16:49;;;;;;;;;;;;;;;11.59;100.00;102116.38;4900969;29;20041;-79
2023/09/30 00:19:14;;;;;;;10.20;2.40;;;;;;;11.56;100.00;102122.22;4875918;29;19986;-78
2023/09/30 00:21:40;;;;;;;8.57;2.00;;;;;;;11.56;100.00;102124.09;4869584;29;20044;-79
2023/09/30 00:24:06;;;;;;;6.28;2.10;;;;;;;11.53;100.00;102132.63;4877818;29;20080;-79
2023/09/30 00:26:31;;;;;;;;;;;;;;;11.52;100.00;102133.69;4860539;29;20032;-79
2023/09/30 00:28:57;;;;;;;7.68;2.30;;;;;;;11.49;100.00;102132.28;4878452;29;19952;-77
2023/09/30 00:31:23;;;;;;;12.13;2.95;;;;;;;11.47;100.00;102134.41;4879078;29;20567;-78
2023/09/30 00:33:50;;;;;;;;;;;;;;;11.46;100.00;102135.47;4878159;29;20128;-78
2023/09/30 00:36:16;;;;;;;6.90;2.20;;;;;;;11.43;100.00;102130.56;4847856;29;20006;-78
2023/09/30 00:38:42;;;;;;;7.95;2.20;;;;;;;11.43;100.00;102134.06;4857396;29;20131;-78
2023/09/30 00:41:07;;;;;;;7.28;2.38;;;;;;;11.42;100.00;102135.13;4863495;29;20151;-79
2023/09/30 00:43:33;;;;;;;;;;;;;;;11.41;100.00;102138.06;4863359;29;20037;-78
2023/09/30 00:46:17;;;;;;;9.85;2.75;;;;;;;11.39;100.00;102140.16;4860354;29;19927;-79
2023/09/30 00:48:43;;;;;;;7.57;2.15;;;;;;;11.39;100.00;102140.16;4862642;29;20040;-79
2023/09/30 00:51:08;;;;;;;;;;;;;;;11.38;100.00;102135.84;4864072;29;20089;-79
2023/09/30 00:53:34;;;;;;;12.27;2.53;;;;;;;11.37;100.00;102143.06;4863247;29;20270;-78
2023/09/30 00:56:00;;;;;;;;;;;;;;;11.40;100.00;102147.16;4869914;29;20071;-80
2023/09/30 00:58:28;;;;;;;6.15;2.30;;;;;;;11.42;100.00;102145.03;4869637;29;19923;-79
2023/09/30 01:00:56;;;;;;;7.60;2.15;;;;;;;11.45;100.00;102150.75;4862907;29;20096;-77
2023/09/30 01:03:22;;;;;;;7.88;1.85;;;;;;;11.48;100.00;102142.22;4881371;29;20093;-78
2023/09/30 01:05:49;;;;;;;;;;;;;;;11.52;100.00;102139.88;4866936;29;20036;-78
2023/09/30 01:08:16;;;;;;;7.38;2.88;;;;;;;11.50;100.00;102141.97;4851452;29;19938;-78
2023/09/30 01:10:43;;;;;;;7.68;2.20;;;;;;;11.49;100.00;102151.06;4875458;29;20077;-77
2023/09/30 01:13:08;;;;;;;11.18;3.25;;;;;;;11.49;100.00;102143.81;4875764;23;20121;-76
2023/09/30 01:15:36;;;;;;;9.88;2.30;;;;;;;11.52;100.00;102144.44;4838142;29;20044;-76
2023/09/30 01:18:04;;;;;;;8.88;2.40;;;;;;;11.51;100.00;102138.22;4846751;29;20411;-74
2023/09/30 01:20:32;;;;;;;11.52;2.42;;;;;;;11.49;100.00;102140.34;4848367;29;20105;-74
2023/09/30 01:23:00;;;;;;;7.65;2.13;;;;;;;11.49;100.00;102137.66;4872770;29;20135;-74
2023/09/30 01:25:27;;;;;;;7.25;2.22;;;;;;;11.45;100.00;102142.69;4868120;29;20112;-72
2023/09/30 01:27:54;;;;;;;5.60;2.05;;;;;;;11.44;100.00;102137.56;4850523;29;20049;-74
2023/09/30 01:30:23;;;;;;;14.30;2.35;;;;;;;11.41;100.00;102138.06;4852886;29;20033;-74
2023/09/30 01:32:49;;;;;;;7.55;2.05;;;;;;;11.40;100.00;102144.47;4852858;29;20042;-75
2023/09/30 01:35:15;;;;;;;10.65;2.90;;;;;;;11.35;100.00;102139.00;4853468;29;20039;-75
2023/09/30 01:37:41;;;;;;;6.70;2.03;;;;;;;11.35;100.00;102149.75;4850159;29;20564;-72
2023/09/30 01:40:11;;;;;;;9.55;2.42;;;;;;;11.33;100.00;102146.50;4841876;29;20491;-76
2023/09/30 01:42:38;;;;;;;9.48;2.22;;;;;;;11.31;100.00;102144.06;4864729;29;20037;-74
2023/09/30 01:45:04;;;;;;;8.35;2.30;;;;;;;11.32;100.00;102150.22;4866008;29;20090;-74
2023/09/30 01:47:32;;;;;;;7.95;2.20;;;;;;;11.28;100.00;102149.06;4848016;29;20094;-73
2023/09/30 01:49:58;;;;;;;7.10;2.00;;;;;;;11.27;100.00;102142.09;4853237;29;20587;-75
2023/09/30 01:52:24;;;;;;;10.73;2.17;;;;;;;11.26;100.00;102149.31;4859904;29;20036;-76
2023/09/30 01:54:51;;;;;;;7.20;2.10;;;;;;;11.25;100.00;102160.28;4873203;29;20043;-75
2023/09/30 01:57:17;;;;;;;8.20;2.40;;;;;;;11.21;100.00;102166.13;4844813;29;20070;-74
2023/09/30 01:59:43;;;;;;;7.65;2.17;;;;;;;11.18;100.00;102171.97;4836832;29;20041;-73
2023/09/30 02:02:11;;;;;;;11.63;2.63;;;;;;;11.16;100.00;102168.69;4859904;29;20055;-75
2023/09/30 02:04:37;;;;;;;7.72;2.40;;;;;;;11.13;100.00;102157.66;4865098;29;20040;-73
2023/09/30 02:07:04;;;;;;;8.27;2.22;;;;;;;11.11;100.00;102155.22;4866689;29;20097;-75
2023/09/30 02:09:32;;;;;;;8.68;2.25;;;;;;;11.09;100.00;102162.66;4855999;29;20039;-73
2023/09/30 02:12:00;;;;;;;6.25;1.65;;;;;;;11.07;100.00;102161.28;4851662;29;20137;-74
2023/09/30 02:14:26;;;;;;;;;;;;;;;11.06;100.00;102170.38;4855554;29;20053;-75
2023/09/30 02:16:53;;;;;;;7.22;1.98;;;;;;;11.01;100.00;102167.59;4864812;29;20047;-75
2023/09/30 02:19:21;;;;;;;6.50;2.40;;;;;;;10.97;100.00;102163.72;4837545;29;20135;-75
2023/09/30 02:21:48;;;;;;;6.93;2.20;;;;;;;10.96;100.00;102157.56;4837230;29;20053;-74
2023/09/30 02:24:15;;;;;;;9.73;2.42;;;;;;;10.96;100.00;102168.28;4852413;29;20541;-75
2023/09/30 02:26:41;;;;;;;7.75;1.88;;;;;;;10.93;100.00;102166.91;4852939;29;20109;-76
2023/09/30 02:29:07;;;;;;;8.65;2.13;;;;;;;10.94;100.00;102162.34;4846684;29;20500;-72
2023/09/30 02:31:34;;;;;;;9.00;2.60;;;;;;;10.95;100.00;102166.66;4864174;29;20034;-74
2023/09/30 02:33:59;;;;;;;7.85;2.08;;;;;;;10.92;100.00;102167.16;4868585;29;20628;-73
2023/09/30 02:36:27;;;;;;;10.27;2.05;;;;;;;10.93;100.00;102163.41;4852484;29;20045;-73
2023/09/30 02:38:53;;;;;;;6.70;2.22;;;;;;;10.88;100.00;102165.97;4840311;29;20574;-75
2023/09/30 02:41:20;;;;;;;9.57;2.90;;;;;;;10.88;100.00;102161.44;4867834;29;20037;-74
2023/09/30 02:43:49;;;;;;;10.40;2.78;;;;;;;10.87;100.00;102169.72;4847105;29;20041;-75
2023/09/30 02:46:16;;;;;;;6.30;2.30;;;;;;;10.85;100.00;102177.19;4851764;29;20045;-74
2023/09/30 02:48:43;;;;;;;7.90;2.30;;;;;;;10.83;100.00;102184.63;4832708;29;20048;-75
2023/09/30 02:51:12;;;;;;;12.02;2.70;;;;;;;10.83;100.00;102179.28;4850885;29;20625;-75
2023/09/30 02:53:37;;;;;;;7.00;2.28;;;;;;;10.81;100.00;102176.81;4834876;29;20040;-73
2023/09/30 02:56:04;;;;;;;8.38;2.33;;;;;;;10.80;100.00;102171.72;4859265;29;20545;-75
2023/09/30 02:58:32;;;;;;;9.85;2.45;;;;;;;10.78;100.00;102177.31;4850296;29;20474;-77
2023/09/30 03:00:58;;;;;;;10.80;2.45;;;;;;;10.78;100.00;102181.88;4860958;29;20130;-74
2023/09/30 03:03:26;;;;;;;9.85;2.58;;;;;;;10.76;100.00;102178.59;4856740;29;20488;-75
2023/09/30 03:05:52;;;;;;;10.13;2.95;;;;;;;10.74;100.00;102180.69;4839673;29;20035;-74
2023/09/30 03:08:18;;;;;;;10.88;2.88;;;;;;;10.73;100.00;102181.75;4863595;29;20090;-75
2023/09/30 03:10:44;;;;;;;8.15;2.28;;;;;;;10.71;100.00;102176.63;4864006;29;20766;-76
2023/09/30 03:13:09;;;;;;;8.57;2.72;;;;;;;10.72;100.00;102183.63;4880781;29;20049;-74
2023/09/30 03:15:36;;;;;;;8.07;2.58;;;;;;;10.73;100.00;102184.44;4874945;29;20041;-75
2023/09/30 03:18:03;;;;;;;8.07;3.08;;;;;;;10.73;100.00;102195.16;4865795;29;20525;-73
2023/09/30 03:20:30;;;;;;;8.40;2.60;;;;;;;10.69;100.00;102194.78;4855283;29;20045;-75
2023/09/30 03:22:59;;;;;;;8.93;2.17;;;;;;;10.68;100.00;102189.66;4866666;29;20036;-74
2023/09/30 03:25:27;;;;;;;9.35;2.47;;;;;;;10.66;100.00;102196.09;4860919;29;20123;-77
2023/09/30 03:27:56;;;;;;;9.80;2.53;;;;;;;10.63;100.00;102185.84;4855865;29;20388;-75
2023/09/30 03:30:22;;;;;;;10.15;2.85;;;;;;;10.64;100.00;102192.00;4862286;29;20044;-74
2023/09/30 03:32:51;;;;;;;12.07;2.90;;;;;;;10.64;100.00;102182.09;4849904;29;20049;-73
2023/09/30 03:35:19;;;;;;;10.35;2.75;;;;;;;10.62;100.00;102184.19;4829104;29;20045;-75
2023/09/30 03:37:48;;;;;;;11.77;2.38;;;;;;;10.63;100.00;102182.31;4849168;29;20049;-77
2023/09/30 03:40:18;;;;;;;9.60;2.70;;;;;;;10.61;100.00;102190.59;4852441;29;20517;-75
2023/09/30 03:42:49;;;;;;;10.57;2.67;;;;;;;10.60;100.00;102186.28;4873990;29;20100;-77
2023/09/30 03:45:15;;;;;;;7.72;2.70;;;;;;;10.59;100.00;102184.66;4852859;29;20100;-78
2023/09/30 03:47:42;;;;;;;8.77;2.60;;;;;;;10.58;100.00;102177.69;4863490;29;20040;-75
2023/09/30 03:50:14;;;;;;;9.50;3.00;;;;;;;10.55;100.00;102183.50;4849822;29;20041;-75
2023/09/30 03:52:44;;;;;;;9.75;2.63;;;;;;;10.59;100.00;102195.38;4847064;29;20052;-76
2023/09/30 03:55:14;;;;;;;9.23;2.78;;;;;;;10.59;100.00;102189.22;4851405;29;20061;-76
2023/09/30 03:57:40;;;;;;;9.52;2.50;;;;;;;10.60;100.00;102193.53;4854216;29;20072;-77
2023/09/30 04:00:06;;;;;;;8.45;2.72;;;;;;;10.60;100.00;102185.47;4830173;29;20475;-75
2023/09/30 04:02:38;;;;;;;;;;;;;;;10.62;100.00;102197.59;4867543;29;20041;-77
2023/09/30 04:05:05;;;;;;;10.80;2.13;;;;;;;10.59;100.00;102200.75;4847968;29;20400;-76
2023/09/30 04:07:32;;;;;;;8.20;3.13;;;;;;;10.57;100.00;102194.81;4843709;29;20049;-75
2023/09/30 04:10:00;;;;;;;11.35;2.72;;;;;;;10.56;100.00;102187.81;4850784;29;20047;-75
2023/09/30 04:12:28;;;;;;;7.82;3.13;;;;;;;10.57;100.00;102189.47;4836500;29;20574;-74
2023/09/30 04:14:53;;;;;;;8.07;2.55;;;;;;;10.55;100.00;102190.72;4865886;29;20041;-75
2023/09/30 04:17:22;;;;;;;9.85;3.08;;;;;;;10.54;100.00;102195.25;4840064;29;20040;-73
2023/09/30 04:19:51;;;;;;;8.40;2.63;;;;;;;10.54;100.00;102192.59;4865395;29;20037;-75
2023/09/30 04:22:18;;;;;;;6.95;2.65;;;;;;;10.56;100.00;102190.47;4848078;29;20101;-75
2023/09/30 04:24:45;;;;;;;12.18;2.60;;;;;;;10.54;100.00;102200.63;4869536;29;20192;-75
2023/09/30 04:27:11;;;;;;;12.02;3.05;;;;;;;10.57;100.00;102207.41;4876411;29;20453;-74
2023/09/30 04:29:37;;;;;;;10.07;3.42;;;;;;;10.57;100.00;102208.22;4844878;29;20037;-78
2023/09/30 04:32:04;;;;;;;8.60;3.05;;;;;;;10.56;100.00;102214.59;4856415;29;20033;-76
2023/09/30 04:34:30;;;;;;;10.65;2.88;;;;;;;10.54;100.00;102197.94;4849164;29;20037;-75
2023/09/30 04:36:56;;;;;;;10.18;2.83;;;;;;;10.59;100.00;102216.81;4837228;29;20045;-75
2023/09/30 04:39:22;;;;;;;11.75;3.38;;;;;;;10.58;100.00;102214.38;4855025;29;20356;-75
2023/09/30 04:41:49;;;;;;;11.85;2.72;;;;;;;10.60;100.00;102207.72;4863063;29;20396;-77
2023/09/30 04:44:16;;;;;;;8.82;3.08;;;;;;;10.60;100.00;102213.09;4862454;29;20567;-77
2023/09/30 04:46:45;;;;;;;9.60;2.88;;;;;;;10.62;100.00;102210.97;4841732;29;20101;-75
2023/09/30 04:49:15;;;;;;;7.65;2.70;;;;;;;10.63;100.00;102217.16;4836323;29;20052;-76
2023/09/30 04:51:41;;;;;;;10.20;2.95;;;;;;;10.69;100.00;102232.28;4857048;29;20229;-75
2023/09/30 04:54:08;;;;;;;11.27;3.10;;;;;;;10.70;100.00;102230.44;4850096;29;20036;-75
2023/09/30 04:56:35;;;;;;;15.55;2.70;;;;;;;10.71;100.00;102232.09;4845414;29;20980;-74
2023/09/30 04:59:01;;;;;;;;;;;;;;;10.75;100.00;102219.84;4863850;29;20139;-75
2023/09/30 05:01:28;;;;;;;10.13;3.05;;;;;;;10.77;100.00;102223.09;4884674;29;19924;-75
2023/09/30 05:03:54;;;;;;;8.05;2.72;;;;;;;10.78;100.00;102211.34;4866758;29;20037;-74
2023/09/30 05:06:21;;;;;;;8.82;3.03;;;;;;;10.78;100.00;102217.50;4863280;29;20058;-73
2023/09/30 05:08:50;;;;;;;12.68;2.92;;;;;;;10.78;100.00;102217.50;4856714;29;20485;-76
2023/09/30 05:11:16;;;;;;;7.25;2.67;;;;;;;10.79;100.00;102235.22;4850397;29;20060;-74
2023/09/30 05:13:42;;;;;;;9.63;2.72;;;;;;;10.82;100.00;102233.91;4872113;29;20148;-75
2023/09/30 05:16:08;;;;;;;8.85;2.40;;;;;;;10.84;100.00;102231.84;4853653;29;20047;-73
2023/09/30 05:18:34;;;;;;;9.32;2.78;;;;;;;10.82;100.00;102234.72;4861085;29;20483;-73
2023/09/30 05:21:00;;;;;;;8.43;3.00;;;;;;;10.81;100.00;102232.28;4862470;29;20121;-76
2023/09/30 05:23:26;;;;;;;12.25;3.33;;;;;;;10.82;100.00;102228.56;4853547;29;20185;-77
2023/09/30 05:25:53;;;;;;;9.65;2.80;;;;;;;10.86;100.00;102240.44;4860758;29;20037;-77
2023/09/30 05:28:22;;;;;;;13.63;3.47;;;;;;;10.87;100.00;102242.06;4863663;29;20463;-76
2023/09/30 05:30:50;;;;;;;7.53;2.15;;;;;;;10.87;100.00;102234.84;4853305;29;20036;-77
2023/09/30 05:33:16;;;;;;;9.27;3.15;;;;;;;10.87;100.00;102231.34;4863201;29;20049;-76
2023/09/30 05:35:44;;;;;;;15.95;3.45;;;;;;;10.89;100.00;102239.97;4860074;29;20153;-77
2023/09/30 05:38:10;;;;;;;8.65;2.92;;;;;;;10.90;100.00;102239.72;4857382;29;20041;-77
2023/09/30 05:40:36;;;;;;;9.65;2.63;;;;;;;10.90;100.00;102255.00;4851439;29;20388;-76
2023/09/30 05:43:05;;;;;;;8.35;2.70;;;;;;;10.90;100.00;102252.31;4869161;29;20119;-75
2023/09/30 05:45:35;;;;;;;11.63;3.15;;;;;;;10.91;100.00;102259.34;4862112;29;20041;-77
2023/09/30 05:48:06;;;;;;;9.60;3.03;;;;;;;10.90;100.00;102269.22;4839391;29;20498;-78
2023/09/30 05:50:36;;;;;;;10.48;2.97;;;;;;;10.92;100.00;102264.44;4854776;29;20084;-77
2023/09/30 05:53:02;;;;;;;9.45;2.80;;;;;;;10.97;100.00;102266.41;4858105;29;20081;-78
2023/09/30 05:55:29;;;;;;;5.88;2.50;;;;;;;10.99;100.00;102275.06;4866502;29;20403;-77
2023/09/30 05:57:55;;;;;;;7.03;2.45;;;;;;;10.99;100.00;102264.34;4861474;29;20051;-75
2023/09/30 06:00:22;;;;;;;;;;;;;;;11.06;100.00;102269.56;4862111;29;20032;-79
2023/09/30 06:02:49;;;;;;;9.65;2.72;;;;;;;11.06;100.00;102266.88;4874148;29;19919;-75
2023/09/30 06:05:16;;;;;;;11.73;3.20;;;;;;;11.05;100.00;102270.63;4845547;29;20132;-74
2023/09/30 06:07:45;;;;;;;7.75;2.42;;;;;;;11.07;100.00;102282.72;4858771;29;20034;-75
2023/09/30 06:10:12;;;;;;;10.20;2.92;;;;;;;11.10;100.00;102292.97;4844563;29;20042;-76
2023/09/30 06:12:38;;;;;;;9.63;3.08;;;;;;;11.11;100.00;102283.09;4864389;29;20044;-75
2023/09/30 06:15:05;;;;;;;8.63;2.72;;;;;;;11.13;100.00;102281.78;4853736;29;20048;-75
2023/09/30 06:17:33;;;;;;;8.85;3.10;;;;;;;11.12;100.00;102290.91;4851719;29;20415;-75
2023/09/30 06:20:07;;;;;;;12.48;2.83;;;;;;;11.15;100.00;102306.50;4855043;29;20033;-76
2023/09/30 06:22:33;;;;;;;8.65;3.05;;;;;;;11.17;100.00;102299.03;4834292;29;20044;-77
2023/09/30 06:24:59;;;;;;;10.20;3.22;;;;;;;11.20;100.00;102313.84;4852680;29;20041;-75
2023/09/30 06:27:27;;;;;;;12.57;3.20;;;;;;;11.21;100.00;102316.28;4867402;29;20128;-76
2023/09/30 06:29:53;;;;;;;8.75;2.60;;;;;;;11.21;100.00;102304.75;4867457;29;20045;-78
2023/09/30 06:32:20;;;;;;;9.57;2.92;;;;;;;11.22;100.00;102306.38;4861376;29;20065;-79
2023/09/30 06:34:45;;;;;;;10.90;3.08;;;;;;;11.25;100.00;102305.91;4848456;29;20037;-76
2023/09/30 06:37:15;;;;;;;7.45;2.83;;;;;;;11.25;100.00;102316.66;4840536;29;20122;-76
2023/09/30 06:39:41;;;;;;;7.82;2.72;;;;;;;11.26;100.00;102318.28;4859220;29;20045;-77
2023/09/30 06:42:07;;;;;;;8.18;2.67;;;;;;;11.30;100.00;102326.66;4871271;29;20041;-77
2023/09/30 06:44:33;;;;;;;9.43;3.47;;;;;;;11.33;100.00;102323.50;4850409;29;20097;-76
2023/09/30 06:46:58;;;;;;;11.10;2.85;;;;;;;11.39;100.00;102327.94;4833828;29;20060;-76
2023/09/30 06:49:24;;;;;;;7.72;2.85;;;;;;;11.45;100.00;102317.06;4860767;29;20061;-76
2023/09/30 06:51:50;;;;;;;9.40;3.25;;;;;;;11.53;100.00;102329.31;4864478;29;20045;-76
2023/09/30 06:54:16;;;;;;;8.55;2.90;;;;;;;11.62;100.00;102325.19;4848000;29;20033;-77
2023/09/30 06:56:42;;;;;;;10.25;3.30;;;;;;;11.73;100.00;102332.41;4858557;29;20033;-75
2023/09/30 06:59:09;;;;;;;9.15;3.28;;;;;;;11.83;100.00;102333.66;4866711;29;20041;-76
2023/09/30 07:01:35;;;;;;;12.90;3.40;;;;;;;11.91;100.00;102333.28;4845602;29;20051;-76
2023/09/30 07:04:01;;;;;;;15.50;3.35;;;;;;;12.03;100.00;102336.75;4839884;29;20043;-74
2023/09/30 07:06:27;;;;;;;11.45;3.65;;;;;;;12.11;100.00;102346.28;4866930;29;20768;-72
2023/09/30 07:08:53;;;;;;;10.07;3.25;;;;;;;12.22;100.00;102340.03;4845047;29;20138;-73
2023/09/30 07:11:34;;;;;;;12.63;3.70;;;;;;;12.33;100.00;102344.53;4868930;29;20048;-75
2023/09/30 07:14:02;;;;;;;14.15;3.92;;;;;;;12.45;100.00;102347.16;4870950;29;20048;-75
2023/09/30 07:16:27;;;;;;;7.60;2.65;;;;;;;12.53;100.00;102350.28;4873057;29;20090;-74
2023/09/30 07:18:53;;;;;;;8.60;3.00;;;;;;;12.62;100.00;102358.72;4849341;29;20068;-74
2023/09/30 07:21:19;;;;;;;;;;;;;;;12.70;100.00;102360.19;4840506;29;20053;-73
2023/09/30 07:23:45;;;;;;;8.60;2.55;;;;;;;12.78;100.00;102363.28;4868425;29;20378;-77
2023/09/30 07:26:10;;;;;;;;;;;;;;;12.89;100.00;102361.59;4851999;29;20080;-78
2023/09/30 07:28:36;;;;;;;10.63;3.50;;;;;;;12.96;100.00;102375.69;4852141;29;20401;-75
2023/09/30 07:31:03;;;;;;;8.85;2.50;;;;;;;13.01;100.00;102366.88;4866437;29;20095;-76
2023/09/30 07:33:30;;;;;;;9.65;2.63;;;;;;;13.09;100.00;102369.16;4845510;29;20522;-76
2023/09/30 07:35:55;;;;;;;11.23;2.53;;;;;;;13.18;100.00;102367.66;4853402;29;20797;-76
2023/09/30 07:38:22;;;;;;;;;;;;;;;13.29;100.00;102374.84;4854027;29;20033;-76
2023/09/30 07:40:48;;;;;;;10.05;2.60;;;;;;;13.34;100.00;102377.63;4866044;29;19955;-77
2023/09/30 07:43:15;;;;;;;13.68;3.00;;;;;;;13.41;100.00;102377.41;4869427;29;20037;-73
2023/09/30 07:45:40;;;;;;;9.27;2.65;;;;;;;13.48;100.00;102371.84;4833774;29;21173;-76
2023/09/30 07:48:09;;;;;;;8.98;2.33;;;;;;;13.52;100.00;102367.59;4863686;29;20032;-75
2023/09/30 07:50:35;;;;;;;10.05;2.70;;;;;;;13.58;100.00;102364.72;4864895;29;20170;-73
2023/09/30 07:53:01;;;;;;;12.38;2.67;;;;;;;13.66;100.00;102368.88;4854767;29;20124;-73
2023/09/30 07:55:27;;;;;;;;;;;;;;;13.68;100.00;102358.66;4868697;29;20076;-76
2023/09/30 07:57:52;;;;;;;10.75;2.45;;;;;;;13.76;100.00;102369.00;4836774;29;19979;-75
2023/09/30 08:00:21;;;;;;;;;;;;;;;13.85;100.00;102362.09;4881592;29;20407;-75
2023/09/30 08:02:47;;;;;;;7.35;1.92;;;;;;;13.99;100.00;102372.47;4845804;29;19930;-75
2023/09/30 08:05:13;;;;;;;;;;;;;;;14.07;100.00;102377.41;4852341;29;20033;-74
2023/09/30 08:07:39;;;;;;;13.05;2.88;;;;;;;14.10;100.00;102380.44;4841515;29;19923;-75
2023/09/30 08:10:06;;;;;;;11.55;2.50;;;;;;;14.13;100.00;102376.41;4849524;29;20128;-72
2023/09/30 08:12:34;;;;;;;8.55;2.67;;;;;;;14.22;100.00;102372.16;4866993;29;20131;-75
2023/09/30 08:15:11;;;;;;;8.38;2.28;;;;;;;14.30;100.00;102374.44;4880233;29;20026;-74
2023/09/30 08:17:37;;;;;;;17.83;3.13;;;;;;;14.38;100.00;102367.75;4872551;29;20574;-75
2023/09/30 08:20:04;;;;;;;;;;;;;;;14.48;100.00;102368.69;4834925;29;20045;-75
2023/09/30 08:22:30;;;;;;;10.95;2.85;;;;;;;14.57;100.00;102376.34;4863407;29;20712;-73
2023/09/30 08:24:56;;;;;;;;;;;;;;;14.62;100.00;102382.56;4835795;29;20128;-76
2023/09/30 08:27:24;;;;;;;6.70;2.13;;;;;;;14.70;100.00;102392.91;4882739;29;19944;-74
2023/09/30 08:29:49;;;;;;;8.77;1.83;;;;;;;14.79;100.00;102395.91;4849306;29;20049;-75
2023/09/30 08:32:40;;;;;;;10.73;2.58;;;;;;;14.81;100.00;102399.16;4875489;29;20128;-75
2023/09/30 08:35:08;;;;;;;;;;;;;;;14.85;100.00;102408.38;4864244;29;20119;-75
2023/09/30 08:37:38;;;;;;;7.68;2.55;;;;;;;14.90;100.00;102394.94;4863060;29;19920;-73
2023/09/30 08:40:04;;;;;;;;;;;;;;;14.94;100.00;102396.03;4848244;29;20076;-75
2023/09/30 08:42:33;;;;;;;8.90;2.15;;;;;;;15.01;100.00;102385.81;4852656;29;19919;-74
2023/09/30 08:44:59;;;;;;;8.63;2.10;;;;;;;15.05;100.00;102385.31;4852540;29;20045;-76
2023/09/30 08:47:28;;;;;;;10.13;2.08;;;;;;;15.12;100.00;102388.63;4848038;29;20045;-73
2023/09/30 08:49:57;;;;;;;11.15;2.15;;;;;;;15.17;100.00;102394.03;4853351;29;20542;-73
2023/09/30 08:52:24;;;;;;;10.20;2.40;;;;;;;15.25;100.00;102391.66;4849486;29;20037;-74
2023/09/30 08:54:50;;;;;;;8.52;2.00;;;;;;;15.23;100.00;102388.41;4852673;29;20033;-73
2023/09/30 08:57:18;;;;;;;;;;;;;;;15.34;100.00;102404.66;4858905;29;20120;-73
2023/09/30 08:59:46;;;;;;;13.05;3.22;;;;;;;15.37;100.00;102393.34;4860217;29;19920;-76
2023/09/30 09:02:11;;;;;;;11.07;1.92;;;;;;;15.42;100.00;102409.56;4850562;29;20048;-73
2023/09/30 09:04:37;;;;;;;;;;;;;;;15.51;100.00;102411.53;4847102;29;20431;-73
2023/09/30 09:07:03;;;;;;;10.10;1.77;;;;;;;15.54;100.00;102416.38;4864216;29;20014;-73
2023/09/30 09:09:28;;;;;;;7.80;1.95;;;;;;;15.61;99.80;102415.34;4844168;29;20069;-74
2023/09/30 09:11:58;;;;;;;12.60;2.13;;;;;;;15.65;100.00;102411.91;4840135;29;20120;-78
2023/09/30 09:14:37;;;;;;;7.50;2.17;;;;;;;15.68;96.34;102407.84;4854600;29;20065;-73
2023/09/30 09:17:04;;;;;;;9.48;2.13;;;;;;;15.74;96.63;102409.50;4873992;29;20040;-74
2023/09/30 09:19:32;;;;;;;9.13;2.05;;;;;;;15.80;97.22;102408.44;4856552;29;20041;-75
2023/09/30 09:21:59;;;;;;;5.97;1.65;;;;;;;15.85;100.00;102419.28;4865694;29;20048;-72
2023/09/30 09:24:32;;;;;;;10.50;2.28;;;;;;;15.97;99.10;102414.44;4858487;29;20048;-73
2023/09/30 09:27:12;;;;;;;12.25;2.00;;;;;;;16.02;100.00;102424.47;4849538;29;20116;-74
2023/09/30 09:29:40;;;;;;;8.98;2.30;;;;;;;16.05;97.92;102416.66;4856264;29;20049;-74
2023/09/30 09:32:13;;;;;;;6.35;2.10;;;;;;;16.09;100.00;102414.22;4851042;29;20043;-74
2023/09/30 09:34:40;;;;;;;10.82;2.58;;;;;;;16.13;99.94;102419.91;4859824;29;20041;-73
2023/09/30 09:37:20;;;;;;;9.00;1.90;;;;;;;16.20;98.99;102412.34;4851449;29;20511;-74
2023/09/30 09:39:53;;;;;;;8.93;1.80;;;;;;;16.27;98.64;102418.31;4861601;29;21126;-77
2023/09/30 09:42:26;;;;;;;9.85;2.40;;;;;;;16.32;100.00;102418.31;4863528;29;20554;-77
2023/09/30 09:45:00;;;;;;;8.25;1.92;;;;;;;16.37;97.34;102429.16;4869958;29;20041;-74
2023/09/30 09:47:27;;;;;;;7.88;1.63;;;;;;;16.41;96.03;102426.72;4869757;29;20064;-72
2023/09/30 09:49:54;;;;;;;10.35;2.20;;;;;;;16.43;97.86;102427.25;4864227;29;20330;-76
2023/09/30 09:52:21;;;;;;;8.55;2.03;;;;;;;16.44;95.65;102410.78;4854513;29;20491;-78
2023/09/30 09:54:47;;;;;;;8.43;1.98;;;;;;;16.49;94.23;102407.28;4852359;29;20212;-75
2023/09/30 09:57:14;;;;;;;7.75;1.80;;;;;;;16.51;95.68;102414.03;4854268;29;20072;-73
2023/09/30 09:59:42;;;;;;;11.80;2.78;;;;;;;16.57;96.91;102412.94;4852768;29;20101;-75
2023/09/30 10:02:12;;;;;;;10.23;2.38;;;;;;;16.60;95.88;102411.63;4854305;29;20131;-74
2023/09/30 10:04:37;;;;;;;11.82;2.17;;;;;;;16.65;91.48;102404.28;4854179;29;20055;-72
2023/09/30 10:07:05;;;;;;;7.75;1.60;;;;;;;16.71;93.03;102397.03;4865625;29;20513;-75
2023/09/30 10:09:35;;;;;;;6.40;1.92;;;;;;;16.75;94.57;102413.53;4837466;29;20041;-75
2023/09/30 10:12:01;;;;;;;7.95;1.67;;;;;;;16.80;94.74;102408.94;4869331;29;20069;-76
2023/09/30 10:14:36;;;;;;;8.70;1.80;;;;;;;16.88;96.70;102410.28;4867977;29;20041;-73
2023/09/30 10:17:03;;;;;;;9.13;1.67;;;;;;;16.83;91.88;102405.69;4870322;29;20064;-73
2023/09/30 10:19:31;;;;;;;8.90;1.80;;;;;;;16.87;94.63;102406.78;4847138;29;20037;-73
2023/09/30 10:22:16;;;;;;;9.48;1.80;;;;;;;16.93;95.41;102415.69;4874675;29;20033;-76
2023/09/30 10:24:42;;;;;;;10.90;2.22;;;;;;;16.99;93.23;102417.31;4847814;29;20040;-73
2023/09/30 10:54:33;;;;;;;8.23;1.90;;;;;;;17.58;86.55;102434.81;4930562;29;20059;-90
2023/09/30 10:57:03;;;;;;;9.77;1.88;;;;;;;17.63;86.94;102430.19;4915182;29;20036;-90
2023/09/30 10:59:34;;;;;;;11.02;2.25;;;;;;;17.72;86.93;102428.56;4908793;29;20040;-89
2023/09/30 11:02:00;;;;;;;9.13;1.42;;;;;;;17.88;82.32;102433.91;4894150;29;20083;-88
2023/09/30 11:04:28;;;;;;;5.63;1.48;;;;;;;17.94;83.93;102430.09;4891560;29;20127;-90
2023/09/30 11:06:58;;;;;;;8.57;1.77;;;;;;;18.04;81.00;102432.75;4905623;29;20036;-89
2023/09/30 11:09:24;;;;;;;10.95;1.63;;;;;;;18.12;84.60;102437.59;4900534;29;20119;-89
2023/09/30 11:11:53;;;;;;;7.43;1.42;;;;;;;18.16;85.01;102438.66;4890472;29;20143;-89
2023/09/30 11:14:24;;;;;;;8.63;1.30;;;;;;;18.24;85.28;102435.38;4910807;29;20092;-89
2023/09/30 11:16:53;;;;;;;5.93;1.45;;;;;;;18.21;80.91;102435.91;4892719;29;20040;-87
2023/09/30 11:19:23;;;;;;;7.72;1.45;;;;;;;18.23;80.78;102432.94;4895141;29;20037;-89
2023/09/30 11:21:58;;;;;;;6.45;1.95;;;;;;;18.20;79.85;102428.06;4895915;29;20068;-87
2023/09/30 11:24:25;;;;;;;7.18;1.75;;;;;;;18.26;82.34;102426.94;4905142;29;20482;-88
2023/09/30 11:26:55;;;;;;;15.15;1.90;;;;;;;18.14;78.64;102429.97;4907490;29;20541;-88
2023/09/30 11:29:21;;;;;;;6.07;1.38;;;;;;;18.21;81.90;102430.47;4892871;29;20040;-88
2023/09/30 11:31:50;;;;;;;10.27;2.20;;;;;;;18.23;80.07;102420.19;4895844;29;20462;-89
2023/09/30 11:34:17;;;;;;;8.25;1.58;;;;;;;18.25;81.15;102423.41;4896792;29;20124;-88
2023/09/30 11:36:51;;;;;;;6.28;1.45;;;;;;;18.33;78.43;102421.22;4906913;29;20095;-89
2023/09/30 11:39:24;;;;;;;10.93;1.70;;;;;;;18.31;74.25;102417.97;4894870;29;20050;-89
2023/09/30 11:41:55;;;;;;;8.73;1.65;;;;;;;18.15;77.41;102425.38;4924158;29;20039;-91
2023/09/30 11:44:20;;;;;;;6.55;1.38;;;;;;;18.13;78.71;102427.56;4898187;29;20090;-90
2023/09/30 11:47:04;;;;;;;8.75;1.58;;;;;;;18.06;74.85;102421.63;4908347;29;20122;-88
2023/09/30 11:49:35;;;;;;;8.32;1.67;;;;;;;18.20;76.00;102417.22;4897848;29;20553;-87
2023/09/30 11:52:02;;;;;;;6.55;1.30;;;;;;;18.26;75.05;102416.91;4925312;29;20037;-89